Airfield :
LOGIN :

Register | Disclaimer

   EN    FR    IT 

 










Legend :    VFR   Marginal VFR   IFR   Intensive IFR   Very Intensive IFR
Visi :
Ceiling :
>= 8 km
>= 3000ft
5 to 8 km
1000 to 3000 ft
1500m to 5 km
500 to 1000 ft
800 to 1500m
200 to 500 ft
< 800m
< 200 ft
Symbols :   Thunderstorms  Fog  Heavy snow  Heavy precipitations  Wind > 20 kt
SIGMETs :     Misc.  Thunderstorms  Icing  Turbulence  Mountain Waves  Volcanic Ashes







- Airport Elevation : 1306 ft
- IATA code : ACH


LSZR - Alten Rhein

CURRENT METAR :
  • 132320Z AUTO 12005KT 9999 FEW080 OVC100 M03/M07 Q1014

EXPIRED METARs :
  • 132250Z AUTO 11007KT 9999 SCT080 OVC100 M03/M07 Q1014
  • 132220Z AUTO VRB01KT 9999 OVC080 SCT100 M02/M07 Q1013
  • 132150Z AUTO 13005KT 9999 SCT080 BKN100 BKN120 M02/M06 Q1013
  • 132120Z AUTO VRB02KT CAVOK M02/M06 Q1013
  • 132050Z AUTO 12005KT 9999 NSC M02/M06 Q1013

TAF TAF LSZR
Valid from the 13 at 15:00 until the 14 at 00:00 UTC


131425Z 1315/1324 VRB03KT CAVOK
TEMPO 1316/1324 9999 SCT080
ATIS : +41 71 858 51 66
No reported NOTAMs for that airfield.



MET'MAP, your aeronautical weather chart ! - Copyright ORBIFLY December 2007 - Disclaimer

ORBIFLY MET'MAP TEAM :

Programming & Development : Alexandra Zaïnal
Concept & Development : Baudouin d'Aumeries
Co-Development & Prog : Marc-Olivier Méhu
Technical & hardware support : Manuel Goepfert

Contact : metmap@orbifly.com




SOURCES & CREDITS :

   NOAA